Time;durP1;ratioP1;P1;durP2;ratioP2;P2;SDS_P1;SDS_P2;PMS_P1;PMS_P2;Temp;Humidity;BMP_temperature;BMP_pressure;BME280_temperature;BME280_humidity;BME280_pressure;Samples;Min_cycle;Max_cycle;Signal;HPM_P1;HPM_P2
2024/01/20 00:02:00;;;;;;;155.85;143.90;;;0.10;99.90;;;;;;12528841;28;20053;-36
2024/01/20 00:08:02;;;;;;;155.10;142.98;;;0.20;99.90;;;;;;12545584;28;20041;-36
2024/01/20 00:14:04;;;;;;;150.70;139.02;;;0.20;99.90;;;;;;12557670;28;20413;-36
2024/01/20 00:20:07;;;;;;;152.35;140.57;;;0.10;99.90;;;;;;12564655;28;20063;-36
2024/01/20 00:26:09;;;;;;;146.48;134.95;;;0.10;99.90;;;;;;12559092;28;20478;-36
2024/01/20 00:32:11;;;;;;;147.48;136.02;;;0.00;99.90;;;;;;12553902;28;20049;-36
2024/01/20 00:38:14;;;;;;;152.55;140.13;;;0.00;99.90;;;;;;12565988;28;20049;-36
2024/01/20 00:44:16;;;;;;;149.45;137.82;;;0.00;99.90;;;;;;12565716;28;20048;-36
2024/01/20 00:50:18;;;;;;;149.45;137.32;;;0.00;99.90;;;;;;12568716;28;20052;-36
2024/01/20 00:56:20;;;;;;;146.77;134.73;;;0.00;99.90;;;;;;12547761;28;20060;-36
2024/01/20 01:02:23;;;;;;;146.48;134.75;;;-0.10;99.90;;;;;;12565221;28;20060;-36
2024/01/20 01:08:25;;;;;;;145.57;133.73;;;-0.10;99.90;;;;;;12548020;28;20114;-36
2024/01/20 01:14:27;;;;;;;146.32;134.63;;;-0.10;99.90;;;;;;12580082;28;20056;-36
2024/01/20 01:20:29;;;;;;;141.77;130.55;;;-0.10;99.90;;;;;;12557454;28;20044;-36
2024/01/20 01:26:31;;;;;;;145.05;133.40;;;0.00;99.90;;;;;;12552739;28;20048;-36
2024/01/20 01:32:34;;;;;;;146.70;135.35;;;-0.10;99.90;;;;;;12568342;28;20052;-36
2024/01/20 01:38:36;;;;;;;146.98;135.00;;;0.00;99.90;;;;;;12554755;28;20424;-36
2024/01/20 01:44:38;;;;;;;147.80;136.40;;;0.00;99.90;;;;;;12569119;28;20078;-37
2024/01/20 01:50:40;;;;;;;152.85;140.65;;;0.00;99.90;;;;;;12559764;28;20045;-36
2024/01/20 01:56:45;;;;;;;145.55;134.45;;;0.00;99.90;;;;;;12548833;28;20512;-36
2024/01/20 02:02:47;;;;;;;152.30;139.88;;;0.00;99.90;;;;;;12573812;28;20045;-36
2024/01/20 02:08:50;;;;;;;154.73;142.00;;;0.00;99.90;;;;;;12565955;28;20044;-35
2024/01/20 02:14:52;;;;;;;153.90;141.63;;;0.00;99.90;;;;;;12590052;28;20503;-36
2024/01/20 02:20:55;;;;;;;153.77;141.48;;;0.00;99.90;;;;;;12593051;28;20064;-36
2024/01/20 02:26:58;;;;;;;149.05;137.43;;;0.00;99.90;;;;;;12560113;28;20687;-36
2024/01/20 02:33:00;;;;;;;154.68;142.10;;;0.00;99.90;;;;;;12582179;28;20052;-36
2024/01/20 02:39:02;;;;;;;159.95;146.88;;;0.10;99.90;;;;;;12552392;28;20049;-36
2024/01/20 02:45:05;;;;;;;155.35;143.75;;;0.10;99.90;;;;;;12563870;28;20044;-36
2024/01/20 02:51:06;;;;;;;154.82;142.82;;;0.10;99.90;;;;;;12570422;28;20048;-36
2024/01/20 02:57:08;;;;;;;154.68;143.05;;;0.00;99.90;;;;;;12567604;28;20056;-36
2024/01/20 03:03:10;;;;;;;146.50;135.00;;;0.00;99.90;;;;;;12588875;28;20061;-36
2024/01/20 03:09:14;;;;;;;145.70;134.43;;;-0.10;99.90;;;;;;12571889;28;20047;-36
2024/01/20 03:15:17;;;;;;;143.00;131.77;;;-0.20;99.90;;;;;;12571587;28;20041;-36
2024/01/20 03:21:19;;;;;;;138.35;127.93;;;-0.20;99.90;;;;;;12576451;28;20109;-36
2024/01/20 03:27:21;;;;;;;137.35;126.60;;;-0.30;99.90;;;;;;12568482;28;20421;-36
2024/01/20 03:33:22;;;;;;;135.70;125.93;;;-0.40;99.90;;;;;;12572019;28;20094;-37
2024/01/20 03:39:25;;;;;;;131.48;121.63;;;-0.50;99.90;;;;;;12568007;28;20053;-36
2024/01/20 03:45:27;;;;;;;130.80;120.88;;;-0.50;99.90;;;;;;12562483;28;20041;-36
2024/01/20 03:51:29;;;;;;;132.70;122.95;;;-0.50;99.90;;;;;;12574056;28;20044;-36
2024/01/20 03:57:31;;;;;;;133.73;124.10;;;-0.60;99.90;;;;;;12573700;28;20053;-36
2024/01/20 04:03:33;;;;;;;133.48;123.95;;;-0.60;99.90;;;;;;12587384;28;20052;-36
2024/01/20 04:09:35;;;;;;;133.18;123.57;;;-0.70;99.90;;;;;;12540014;28;20045;-35
2024/01/20 04:15:36;;;;;;;135.75;125.53;;;-0.70;99.90;;;;;;12577105;28;20055;-36
2024/01/20 04:21:39;;;;;;;134.75;124.85;;;-0.70;99.90;;;;;;12581088;28;20076;-36
2024/01/20 04:27:41;;;;;;;130.70;120.80;;;-0.90;99.90;;;;;;12575250;28;20052;-36
2024/01/20 04:33:43;;;;;;;126.60;117.55;;;-1.00;99.90;;;;;;12550432;28;20045;-36
2024/01/20 04:39:45;;;;;;;125.05;115.95;;;-1.10;99.90;;;;;;12563619;28;20044;-36
2024/01/20 04:45:47;;;;;;;126.55;117.35;;;-1.10;99.90;;;;;;12557103;28;20061;-34
2024/01/20 04:51:50;;;;;;;125.53;116.13;;;-1.20;99.90;;;;;;12542938;28;20036;-36
2024/01/20 04:57:52;;;;;;;122.40;113.35;;;-1.20;99.90;;;;;;12554691;28;20049;-36
2024/01/20 05:03:54;;;;;;;124.47;115.53;;;-1.20;99.90;;;;;;12562743;28;20083;-36
2024/01/20 05:09:56;;;;;;;122.85;113.47;;;-1.20;99.90;;;;;;12548591;28;20437;-37
2024/01/20 05:15:59;;;;;;;125.20;115.40;;;-1.20;99.90;;;;;;12563305;28;20097;-36
2024/01/20 05:22:01;;;;;;;130.43;120.53;;;-1.20;99.90;;;;;;12571826;28;20053;-36
2024/01/20 05:28:04;;;;;;;128.30;118.45;;;-1.20;99.90;;;;;;12562691;28;20492;-36
2024/01/20 05:34:06;;;;;;;130.23;120.38;;;-1.20;99.90;;;;;;12561013;28;20040;-36
2024/01/20 05:40:08;;;;;;;126.30;116.97;;;-1.20;99.90;;;;;;12567336;28;20045;-36
2024/01/20 05:46:10;;;;;;;123.82;114.18;;;-1.20;99.90;;;;;;12544399;28;20045;-37
2024/01/20 05:52:12;;;;;;;131.48;121.40;;;-1.10;99.90;;;;;;12541562;28;20072;-36
2024/01/20 05:58:14;;;;;;;131.05;121.13;;;-1.20;99.90;;;;;;12548722;28;20565;-36
2024/01/20 06:04:19;;;;;;;130.85;121.30;;;-1.10;99.90;;;;;;12574768;28;20525;-36
2024/01/20 06:10:21;;;;;;;129.40;119.60;;;-1.10;99.90;;;;;;12563165;28;20102;-36
2024/01/20 06:16:23;;;;;;;133.30;123.75;;;-1.10;99.90;;;;;;12546760;28;20167;-36
2024/01/20 06:22:25;;;;;;;135.73;125.68;;;-1.10;99.90;;;;;;12575050;28;20056;-36
2024/01/20 06:28:27;;;;;;;134.82;124.55;;;-1.10;99.90;;;;;;12552585;28;20045;-36
2024/01/20 06:34:29;;;;;;;132.43;122.38;;;-1.10;99.90;;;;;;12554036;28;20091;-36
2024/01/20 06:40:31;;;;;;;137.63;127.05;;;-1.00;99.90;;;;;;12567483;28;20057;-36
2024/01/20 06:46:33;;;;;;;133.18;123.47;;;-1.00;99.90;;;;;;12573078;28;20043;-36
2024/01/20 06:52:35;;;;;;;135.95;125.07;;;-1.00;99.90;;;;;;12575023;28;20041;-36
2024/01/20 06:58:37;;;;;;;132.00;122.13;;;-1.00;99.90;;;;;;12535872;28;20091;-36
2024/01/20 07:04:38;;;;;;;133.52;122.88;;;-1.10;99.90;;;;;;12591994;28;20048;-36
2024/01/20 07:10:40;;;;;;;138.38;127.45;;;-1.10;99.90;;;;;;12566416;28;20079;-36
2024/01/20 07:16:42;;;;;;;135.85;125.55;;;-1.10;99.90;;;;;;12573425;28;20053;-37
2024/01/20 07:22:44;;;;;;;142.10;131.13;;;-1.10;99.90;;;;;;12590778;28;20250;-36
2024/01/20 07:28:46;;;;;;;142.65;131.40;;;-1.10;99.90;;;;;;12557473;28;20095;-36
2024/01/20 07:34:48;;;;;;;140.43;129.77;;;-1.10;99.90;;;;;;12546439;28;20178;-36
2024/01/20 07:40:53;;;;;;;142.70;131.55;;;-1.10;99.90;;;;;;12565688;28;20406;-36
2024/01/20 07:46:56;;;;;;;142.50;131.52;;;-1.10;99.90;;;;;;12555072;28;20053;-36
2024/01/20 07:52:58;;;;;;;141.00;129.52;;;-1.10;99.90;;;;;;12530843;28;20501;-36
2024/01/20 07:59:00;;;;;;;136.88;126.65;;;-1.10;99.90;;;;;;12571179;28;20048;-36
2024/01/20 08:05:02;;;;;;;144.68;133.73;;;-1.10;99.90;;;;;;12577433;28;20055;-36
2024/01/20 08:11:04;;;;;;;144.07;132.88;;;-1.10;99.90;;;;;;12545811;28;20048;-36
2024/01/20 08:17:07;;;;;;;144.32;133.23;;;-1.00;99.90;;;;;;12556965;28;20052;-37
2024/01/20 08:23:09;;;;;;;142.25;131.35;;;-0.90;99.90;;;;;;12583602;28;20063;-36
2024/01/20 08:29:11;;;;;;;145.70;134.85;;;-0.90;99.90;;;;;;12564843;28;20094;-36
2024/01/20 08:35:13;;;;;;;146.10;135.13;;;-0.80;99.90;;;;;;12553307;28;20076;-35
2024/01/20 08:41:15;;;;;;;143.85;133.50;;;-0.80;99.90;;;;;;12553314;28;20417;-37
2024/01/20 08:47:17;;;;;;;139.07;128.85;;;-0.70;99.90;;;;;;12567956;28;20060;-36
2024/01/20 08:53:19;;;;;;;148.65;137.30;;;-0.50;99.90;;;;;;12561764;28;20505;-36
2024/01/20 08:59:21;;;;;;;147.35;136.38;;;-0.60;99.90;;;;;;12543502;28;20076;-37
2024/01/20 09:05:23;;;;;;;152.00;140.30;;;-0.50;99.90;;;;;;12562919;28;20048;-35
2024/01/20 09:11:25;;;;;;;154.75;143.18;;;-0.50;99.90;;;;;;12546348;28;20132;-37
2024/01/20 09:17:27;;;;;;;152.27;140.98;;;-0.60;99.90;;;;;;12537552;28;20041;-36
2024/01/20 09:23:29;;;;;;;152.52;140.98;;;-0.60;99.90;;;;;;12569634;28;20508;-35
2024/01/20 09:29:31;;;;;;;144.75;133.75;;;-0.70;99.90;;;;;;12573891;28;20071;-36
2024/01/20 09:35:33;;;;;;;146.23;135.27;;;-0.70;99.90;;;;;;12564759;28;20113;-36
2024/01/20 09:41:35;;;;;;;145.18;133.95;;;-0.60;99.90;;;;;;12579313;28;20057;-35
2024/01/20 09:47:37;;;;;;;148.70;137.65;;;-0.50;99.90;;;;;;12563318;28;20048;-36
2024/01/20 09:53:39;;;;;;;145.70;134.70;;;-0.40;99.90;;;;;;12560204;28;20048;-35
2024/01/20 09:59:42;;;;;;;145.48;134.82;;;-0.40;99.90;;;;;;12544721;28;20128;-36
2024/01/20 10:05:44;;;;;;;153.70;142.60;;;-0.30;99.90;;;;;;12571618;28;20060;-35
2024/01/20 10:11:45;;;;;;;146.20;135.40;;;-0.20;99.90;;;;;;12574871;28;20044;-36
2024/01/20 10:17:48;;;;;;;155.05;143.80;;;0.00;99.90;;;;;;12556931;28;20143;-35
2024/01/20 10:23:50;;;;;;;152.07;141.43;;;-0.10;99.90;;;;;;12564485;28;20053;-36
2024/01/20 10:29:52;;;;;;;159.57;147.82;;;0.10;99.90;;;;;;12581355;28;20087;-35
2024/01/20 10:35:54;;;;;;;153.80;143.23;;;0.10;99.90;;;;;;12571711;28;20057;-36
2024/01/20 10:41:57;;;;;;;150.68;140.07;;;0.40;99.90;;;;;;12582761;28;20044;-35
2024/01/20 10:48:20;;;;;;;144.32;134.00;;;0.40;99.90;;;;;;12554783;28;20086;-36
2024/01/20 10:54:23;;;;;;;134.52;124.85;;;0.40;99.90;;;;;;12565047;28;20508;-36
2024/01/20 11:00:25;;;;;;;126.88;118.28;;;0.50;99.90;;;;;;12576976;28;20044;-36
2024/01/20 11:06:27;;;;;;;129.10;120.70;;;0.50;99.90;;;;;;12561496;28;20048;-36
2024/01/20 11:12:31;;;;;;;134.43;125.63;;;0.50;99.90;;;;;;12543417;28;20045;-36
2024/01/20 11:18:40;;;;;;;135.07;126.05;;;0.50;99.90;;;;;;12583767;28;20053;-36
2024/01/20 11:24:42;;;;;;;121.85;113.78;;;0.60;99.90;;;;;;12581026;28;20394;-36
2024/01/20 11:30:45;;;;;;;117.72;109.60;;;0.90;99.90;;;;;;12554085;28;20048;-36
2024/01/20 11:36:48;;;;;;;138.98;129.57;;;1.20;99.90;;;;;;12551998;28;20080;-35
2024/01/20 11:42:50;;;;;;;149.48;139.80;;;1.20;99.90;;;;;;12557676;28;20416;-36
2024/01/20 11:48:54;;;;;;;153.25;143.60;;;1.30;99.90;;;;;;12541897;28;20476;-36
2024/01/20 11:54:56;;;;;;;150.13;140.75;;;1.30;99.90;;;;;;12564367;28;21470;-36
2024/01/20 12:00:59;;;;;;;145.23;136.60;;;1.40;99.90;;;;;;12578447;28;20052;-35
2024/01/20 12:07:01;;;;;;;143.30;134.82;;;1.40;99.90;;;;;;12562115;28;20126;-36
2024/01/20 12:13:03;;;;;;;140.18;131.93;;;1.50;99.90;;;;;;12557192;28;20048;-36
2024/01/20 12:19:05;;;;;;;131.77;124.15;;;1.50;99.90;;;;;;12555418;28;20075;-35
2024/01/20 12:25:08;;;;;;;143.00;134.70;;;1.50;99.90;;;;;;12574857;28;20052;-35
2024/01/20 12:31:11;;;;;;;141.00;133.05;;;1.40;99.90;;;;;;12575611;28;20436;-36
2024/01/20 12:37:17;;;;;;;134.88;127.18;;;1.40;99.90;;;;;;12566739;28;20705;-36
2024/01/20 12:43:19;;;;;;;143.57;135.60;;;1.60;99.90;;;;;;12546603;28;20059;-36
2024/01/20 12:49:20;;;;;;;137.93;130.23;;;1.60;99.90;;;;;;12547965;28;20512;-36
2024/01/20 12:55:23;;;;;;;136.35;128.73;;;1.80;99.90;;;;;;12536039;28;20554;-36
2024/01/20 13:01:25;;;;;;;143.18;134.90;;;2.00;99.90;;;;;;12549058;28;20140;-36
2024/01/20 13:07:27;;;;;;;139.75;132.13;;;2.20;99.90;;;;;;12566159;28;20049;-36
2024/01/20 13:13:29;;;;;;;141.00;133.18;;;2.10;99.90;;;;;;12555749;28;20041;-36
2024/01/20 13:19:31;;;;;;;136.50;129.05;;;2.00;99.90;;;;;;12560677;28;20210;-36
2024/01/20 13:25:33;;;;;;;135.63;128.35;;;1.90;99.90;;;;;;12561861;28;20053;-36
2024/01/20 13:31:35;;;;;;;127.22;120.53;;;1.90;99.90;;;;;;12566770;28;21388;-36
2024/01/20 13:37:38;;;;;;;126.13;119.63;;;1.80;99.90;;;;;;12531723;28;20053;-36
2024/01/20 13:43:40;;;;;;;123.05;116.55;;;1.80;99.90;;;;;;12531170;28;20103;-35
2024/01/20 13:49:44;;;;;;;127.70;120.85;;;1.80;99.90;;;;;;12534698;28;20068;-36
2024/01/20 13:55:46;;;;;;;125.55;118.60;;;1.90;99.90;;;;;;12526274;28;20063;-36
2024/01/20 14:01:51;;;;;;;124.78;118.18;;;1.90;99.90;;;;;;12546164;28;20049;-36
2024/01/20 14:07:53;;;;;;;118.07;111.68;;;1.90;99.90;;;;;;12547935;28;20076;-36
2024/01/20 14:13:55;;;;;;;117.13;110.82;;;1.80;99.90;;;;;;12567409;28;20083;-35
2024/01/20 14:19:57;;;;;;;111.25;105.45;;;1.90;99.90;;;;;;12552446;28;20144;-36
2024/01/20 14:26:00;;;;;;;106.70;101.03;;;1.90;99.90;;;;;;12513075;28;20128;-35
2024/01/20 14:32:02;;;;;;;116.65;110.70;;;1.80;99.90;;;;;;12510140;28;21102;-34
2024/01/20 14:38:04;;;;;;;112.55;106.80;;;1.60;99.90;;;;;;12540993;28;20060;-36
2024/01/20 14:44:06;;;;;;;103.97;98.47;;;1.50;99.90;;;;;;12560250;28;20052;-36
2024/01/20 14:50:09;;;;;;;103.53;97.88;;;1.60;99.90;;;;;;12570588;28;20080;-36
2024/01/20 14:56:10;;;;;;;100.38;95.18;;;1.70;99.90;;;;;;12598436;28;20410;-36
2024/01/20 15:02:13;;;;;;;104.18;98.85;;;1.70;99.90;;;;;;12570400;28;20416;-35
2024/01/20 15:08:15;;;;;;;108.47;102.90;;;1.80;99.90;;;;;;12576803;28;20123;-36
2024/01/20 15:14:17;;;;;;;108.40;102.80;;;1.70;99.90;;;;;;12576206;28;20075;-36
2024/01/20 15:20:19;;;;;;;98.05;92.95;;;1.60;99.90;;;;;;12562988;28;20075;-36
2024/01/20 15:26:23;;;;;;;91.60;86.72;;;1.50;99.90;;;;;;12571443;28;20088;-35
2024/01/20 15:32:26;;;;;;;85.88;81.32;;;1.50;99.90;;;;;;12539586;28;20061;-36
2024/01/20 15:38:28;;;;;;;89.97;85.38;;;1.50;99.90;;;;;;12509997;28;20482;-36
2024/01/20 15:44:30;;;;;;;90.13;85.38;;;1.40;99.90;;;;;;12554344;28;20045;-36
2024/01/20 15:50:32;;;;;;;91.32;86.43;;;1.40;99.90;;;;;;12552163;28;20078;-36
2024/01/20 15:56:40;;;;;;;85.85;81.18;;;1.30;99.90;;;;;;12559087;28;20127;-36
2024/01/20 16:02:42;;;;;;;94.28;89.25;;;1.30;99.90;;;;;;12534812;28;20068;-35
2024/01/20 16:08:44;;;;;;;97.22;92.03;;;1.30;99.90;;;;;;12552106;28;20118;-36
2024/01/20 16:14:46;;;;;;;99.95;94.47;;;1.20;99.90;;;;;;12566844;28;20424;-36
2024/01/20 16:20:48;;;;;;;100.63;95.07;;;1.20;99.90;;;;;;12557161;28;20098;-36
2024/01/20 16:26:50;;;;;;;103.07;97.38;;;1.20;99.90;;;;;;12569628;28;20455;-35
2024/01/20 16:32:52;;;;;;;104.90;98.90;;;1.10;99.90;;;;;;12569351;28;20059;-35
2024/01/20 16:38:54;;;;;;;102.80;96.90;;;1.00;99.90;;;;;;12556762;28;20076;-36
2024/01/20 16:44:56;;;;;;;102.65;96.68;;;0.90;99.90;;;;;;12547875;28;20096;-36
2024/01/20 16:51:02;;;;;;;100.93;95.22;;;0.90;99.90;;;;;;12551960;28;20087;-36
2024/01/20 16:57:15;;;;;;;99.32;93.63;;;0.70;99.90;;;;;;12547239;28;20458;-36
2024/01/20 17:03:19;;;;;;;100.85;95.25;;;0.70;99.90;;;;;;12571107;28;20056;-36
2024/01/20 17:09:21;;;;;;;101.03;95.60;;;0.60;99.90;;;;;;12560803;28;20049;-35
2024/01/20 17:15:23;;;;;;;98.13;92.85;;;0.60;99.90;;;;;;12561863;28;20055;-36
2024/01/20 17:21:25;;;;;;;95.47;90.57;;;0.60;99.90;;;;;;12572841;28;20041;-35
2024/01/20 17:27:27;;;;;;;88.70;84.20;;;0.70;99.90;;;;;;12565692;28;20056;-36
2024/01/20 17:33:29;;;;;;;82.25;78.03;;;0.70;99.90;;;;;;12547382;28;20045;-36
2024/01/20 17:39:37;;;;;;;80.60;76.50;;;0.70;99.90;;;;;;12529259;28;20056;-36
2024/01/20 17:45:39;;;;;;;81.53;77.32;;;0.60;99.90;;;;;;12530439;28;20220;-36
2024/01/20 17:51:41;;;;;;;86.70;82.40;;;0.60;99.90;;;;;;12547669;28;20079;-36
2024/01/20 17:57:45;;;;;;;94.40;89.50;;;0.60;99.90;;;;;;12547418;28;20083;-36
2024/01/20 18:03:47;;;;;;;93.75;88.85;;;0.50;99.90;;;;;;12540701;28;20052;-36
2024/01/20 18:09:49;;;;;;;83.35;78.88;;;0.50;99.90;;;;;;12562396;28;20114;-36
2024/01/20 18:15:51;;;;;;;82.07;77.70;;;0.50;99.90;;;;;;12536257;28;20052;-36
2024/01/20 18:21:53;;;;;;;74.20;70.25;;;0.50;99.90;;;;;;12545577;28;20084;-36
2024/01/20 18:27:56;;;;;;;66.32;62.63;;;0.50;99.90;;;;;;12568480;28;20045;-36
2024/01/20 18:33:58;;;;;;;60.50;57.17;;;0.50;99.90;;;;;;12562179;28;20426;-36
2024/01/20 18:40:00;;;;;;;53.90;50.95;;;0.40;99.90;;;;;;12559434;28;20056;-35
2024/01/20 18:46:02;;;;;;;39.10;37.03;;;0.50;99.90;;;;;;12529445;28;20619;-36
2024/01/20 18:52:04;;;;;;;29.60;28.00;;;0.50;99.90;;;;;;12555859;28;20516;-36
2024/01/20 18:58:06;;;;;;;21.60;20.38;;;0.50;99.90;;;;;;12550929;28;20102;-36
2024/01/20 19:04:08;;;;;;;18.95;17.50;;;0.70;99.90;;;;;;12559994;28;20057;-35
2024/01/20 19:10:10;;;;;;;15.60;14.65;;;0.70;99.90;;;;;;12593379;28;20049;-36
2024/01/20 19:16:12;;;;;;;13.70;12.70;;;0.70;99.90;;;;;;12566929;28;20048;-36
2024/01/20 19:22:14;;;;;;;9.80;9.07;;;0.70;99.90;;;;;;12577475;28;20053;-36
2024/01/20 19:28:16;;;;;;;8.27;7.68;;;0.80;99.90;;;;;;12581228;28;20132;-36
2024/01/20 19:34:18;;;;;;;8.20;7.60;;;0.80;99.90;;;;;;12563161;28;20045;-36
2024/01/20 19:40:20;;;;;;;4.75;4.22;;;0.70;99.90;;;;;;12560290;28;20056;-35
2024/01/20 19:46:22;;;;;;;3.40;3.10;;;0.70;99.90;;;;;;12527547;28;20052;-36
2024/01/20 19:52:24;;;;;;;2.92;2.10;;;0.70;99.90;;;;;;12561477;28;20478;-36
2024/01/20 19:58:25;;;;;;;4.32;3.20;;;0.70;99.90;;;;;;12562240;28;20401;-36
2024/01/20 20:04:27;;;;;;;7.57;5.20;;;0.50;99.90;;;;;;12545347;28;20132;-36
2024/01/20 20:10:29;;;;;;;5.97;4.03;;;0.10;99.90;;;;;;12551103;28;20477;-36
2024/01/20 20:16:31;;;;;;;6.07;3.65;;;0.00;99.90;;;;;;12538126;28;20049;-36
2024/01/20 20:22:33;;;;;;;7.20;4.32;;;-0.10;99.90;;;;;;12562883;28;20469;-36
2024/01/20 20:28:35;;;;;;;7.22;4.20;;;-0.20;99.90;;;;;;12544179;28;20044;-36
2024/01/20 20:34:37;;;;;;;6.68;4.00;;;-0.20;99.90;;;;;;12589505;28;20412;-36
2024/01/20 20:40:39;;;;;;;6.90;4.05;;;-0.30;99.90;;;;;;12521786;28;20072;-36
2024/01/20 20:46:41;;;;;;;7.60;4.07;;;-0.20;99.90;;;;;;12561675;28;20045;-36
2024/01/20 20:52:44;;;;;;;6.47;3.33;;;-0.20;99.90;;;;;;12543612;28;20497;-36
2024/01/20 20:58:47;;;;;;;6.55;3.53;;;-0.30;99.90;;;;;;12549867;28;20055;-36
2024/01/20 21:04:49;;;;;;;6.72;3.33;;;-0.20;99.90;;;;;;12560255;28;20639;-36
2024/01/20 21:10:51;;;;;;;5.85;2.33;;;-0.30;99.90;;;;;;12549979;28;20099;-36
2024/01/20 21:16:53;;;;;;;6.85;2.42;;;-0.10;99.90;;;;;;12556889;28;20405;-36
2024/01/20 21:22:55;;;;;;;7.97;2.78;;;-0.10;99.90;;;;;;12553695;28;20056;-36
2024/01/20 21:28:57;;;;;;;6.72;2.90;;;0.00;99.90;;;;;;12552865;28;20087;-36
2024/01/20 21:34:59;;;;;;;6.32;2.72;;;-0.10;99.90;;;;;;12539630;28;20048;-36
2024/01/20 21:41:01;;;;;;;7.78;3.25;;;-0.10;99.90;;;;;;12533173;28;20056;-36
2024/01/20 21:47:03;;;;;;;7.18;2.70;;;-0.10;99.90;;;;;;12555772;28;20052;-36
2024/01/20 21:53:05;;;;;;;6.80;2.95;;;0.00;99.90;;;;;;12570596;28;20405;-36
2024/01/20 21:59:07;;;;;;;6.25;2.92;;;0.00;99.90;;;;;;12555165;28;20049;-36
2024/01/20 22:05:09;;;;;;;5.85;2.58;;;0.00;99.90;;;;;;12550094;28;20057;-36
2024/01/20 22:11:11;;;;;;;4.95;2.40;;;-0.10;99.90;;;;;;12553152;28;20167;-35
2024/01/20 22:17:13;;;;;;;7.25;3.40;;;0.00;99.90;;;;;;12528551;28;20098;-36
2024/01/20 22:23:15;;;;;;;5.97;2.78;;;0.20;99.90;;;;;;12543842;28;20086;-36
2024/01/20 22:29:17;;;;;;;8.43;3.42;;;0.10;99.90;;;;;;12558030;28;20040;-36
2024/01/20 22:35:31;;;;;;;5.78;2.70;;;0.10;99.90;;;;;;12555177;28;20044;-36
2024/01/20 22:41:33;;;;;;;7.85;3.40;;;0.10;99.90;;;;;;12548973;28;20056;-36
2024/01/20 22:47:36;;;;;;;8.43;3.50;;;0.10;99.90;;;;;;12576144;28;20224;-36
2024/01/20 22:53:39;;;;;;;8.90;3.10;;;0.00;99.90;;;;;;12541517;28;20040;-36
2024/01/20 22:59:41;;;;;;;9.27;3.58;;;-0.10;99.90;;;;;;12591692;28;20040;-36
2024/01/20 23:05:44;;;;;;;8.05;3.58;;;-0.20;99.90;;;;;;12568358;28;20056;-36
2024/01/20 23:11:46;;;;;;;8.25;3.30;;;-0.30;99.90;;;;;;12553733;28;20079;-36
2024/01/20 23:17:48;;;;;;;11.30;3.63;;;-0.30;99.90;;;;;;12551182;28;20044;-36
2024/01/20 23:23:49;;;;;;;8.48;3.95;;;-0.20;99.90;;;;;;12589050;28;20135;-36
2024/01/20 23:29:51;;;;;;;10.15;3.90;;;-0.20;99.90;;;;;;12567198;28;20060;-35
2024/01/20 23:35:53;;;;;;;12.30;4.05;;;-0.20;99.90;;;;;;12568521;28;20131;-35
2024/01/20 23:41:55;;;;;;;8.70;3.40;;;-0.20;99.90;;;;;;12554976;28;20528;-36
2024/01/20 23:47:57;;;;;;;10.70;4.07;;;-0.40;99.90;;;;;;12556789;28;20049;-35
2024/01/20 23:53:59;;;;;;;9.45;4.18;;;-0.40;99.90;;;;;;12544429;28;20045;-36
